Time;durP1;ratioP1;P1;durP2;ratioP2;P2;SDS_P1;SDS_P2;PMS_P1;PMS_P2;Temp;Humidity;BMP_temperature;BMP_pressure;BME280_temperature;BME280_humidity;BME280_pressure;Samples;Min_cycle;Max_cycle;Signal;HPM_P1;HPM_P2
2023/07/11 00:00:21;;;;;;;2.88;0.82;;;17.50;99.90;;;;;;5048603;28;20139;-92
2023/07/11 00:02:48;;;;;;;5.13;0.88;;;17.50;99.90;;;;;;5048673;28;20086;-92
2023/07/11 00:05:16;;;;;;;4.75;0.93;;;17.50;99.90;;;;;;5048774;28;20049;-91
2023/07/11 00:07:42;;;;;;;2.75;0.75;;;17.50;99.90;;;;;;5049323;28;20060;-91
2023/07/11 00:10:11;;;;;;;3.03;1.02;;;17.60;99.90;;;;;;5048491;28;20504;-92
2023/07/11 00:12:37;;;;;;;3.28;0.70;;;16.70;99.90;;;;;;5032642;28;20132;-91
2023/07/11 00:15:03;;;;;;;4.70;0.82;;;17.50;99.90;;;;;;5031792;28;20060;-92
2023/07/11 00:17:29;;;;;;;2.25;1.10;;;17.50;99.90;;;;;;5016172;28;20044;-91
2023/07/11 00:19:57;;;;;;;2.55;0.90;;;17.60;99.90;;;;;;5031696;28;20118;-91
2023/07/11 00:22:24;;;;;;;4.88;1.35;;;17.60;99.90;;;;;;5015605;28;20041;-92
2023/07/11 00:24:51;;;;;;;1.55;0.80;;;17.60;99.90;;;;;;5049043;28;20064;-92
2023/07/11 00:27:19;;;;;;;2.97;0.80;;;17.60;99.90;;;;;;5048337;28;20059;-93
2023/07/11 00:29:45;;;;;;;5.70;0.68;;;17.60;99.90;;;;;;5048938;28;20452;-93
2023/07/11 00:32:11;;;;;;;4.43;0.95;;;17.60;99.90;;;;;;5031854;28;20185;-93
2023/07/11 00:34:37;;;;;;;2.42;0.85;;;17.60;99.90;;;;;;5032650;28;20063;-92
2023/07/11 00:37:03;;;;;;;1.65;0.77;;;17.50;99.90;;;;;;5051347;28;20045;-93
2023/07/11 00:39:31;;;;;;;2.55;1.23;;;17.50;99.90;;;;;;5019636;28;20104;-95
2023/07/11 00:41:57;;;;;;;3.60;0.75;;;17.50;99.90;;;;;;5052583;28;20037;-95
2023/07/11 00:44:24;;;;;;;3.00;1.00;;;17.50;99.90;;;;;;5036835;28;20111;-92
2023/07/11 00:46:50;;;;;;;6.18;1.58;;;17.50;99.90;;;;;;5043803;28;20285;-91
2023/07/11 00:49:21;;;;;;;3.58;1.02;;;17.50;99.90;;;;;;5058159;28;20075;-91
2023/07/11 00:51:56;;;;;;;5.13;1.27;;;17.50;99.90;;;;;;5059395;28;20056;-92
2023/07/11 00:54:27;;;;;;;2.63;0.82;;;17.60;99.90;;;;;;5056311;28;20052;-91
2023/07/11 00:56:54;;;;;;;4.20;0.70;;;17.60;99.90;;;;;;5062237;28;20474;-91
2023/07/11 00:59:21;;;;;;;2.40;0.90;;;17.60;99.90;;;;;;5046996;28;20635;-92
2023/07/11 01:01:55;;;;;;;4.63;1.00;;;16.80;99.90;;;;;;5042038;28;20052;-91
2023/07/11 01:04:21;;;;;;;2.50;0.82;;;17.60;99.90;;;;;;5059374;28;20102;-92
2023/07/11 01:06:47;;;;;;;1.67;0.80;;;17.60;99.90;;;;;;5025958;28;20516;-92
2023/07/11 01:09:12;;;;;;;8.55;1.25;;;17.60;99.90;;;;;;5059798;28;20400;-92
2023/07/11 01:11:57;;;;;;;1.90;0.70;;;17.60;99.90;;;;;;5046222;28;20051;-91
2023/07/11 01:14:24;;;;;;;3.65;0.80;;;17.50;99.90;;;;;;5045826;28;20087;-91
2023/07/11 01:16:51;;;;;;;7.55;1.08;;;16.80;99.90;;;;;;5063100;28;20044;-91
2023/07/11 01:19:16;;;;;;;5.40;1.75;;;17.40;99.90;;;;;;5040250;28;20148;-92
2023/07/11 01:21:43;;;;;;;5.93;1.15;;;17.30;99.90;;;;;;5054082;28;20044;-91
2023/07/11 01:24:08;;;;;;;5.00;1.20;;;17.30;99.90;;;;;;5053665;28;20052;-91
2023/07/11 01:26:34;;;;;;;4.78;0.90;;;17.30;99.90;;;;;;5053615;28;20041;-92
2023/07/11 01:29:00;;;;;;;2.40;1.02;;;17.30;99.90;;;;;;5035447;28;20145;-93
2023/07/11 01:31:25;;;;;;;2.38;0.93;;;17.30;99.90;;;;;;5051902;28;20052;-93
2023/07/11 01:33:51;;;;;;;3.05;1.08;;;17.30;99.90;;;;;;5035097;28;20461;-93
2023/07/11 01:36:17;;;;;;;2.08;0.80;;;16.30;99.90;;;;;;5035142;28;20063;-93
2023/07/11 01:38:43;;;;;;;3.30;0.90;;;17.40;99.90;;;;;;5001996;28;20407;-91
2023/07/11 01:41:11;;;;;;;4.35;1.65;;;17.40;99.90;;;;;;5035011;28;20381;-91
2023/07/11 01:43:37;;;;;;;2.42;1.05;;;17.40;99.90;;;;;;5034902;28;20032;-92
2023/07/11 01:46:03;;;;;;;4.35;1.13;;;17.50;99.90;;;;;;5034552;28;20045;-92
2023/07/11 01:48:29;;;;;;;6.63;1.45;;;17.50;99.90;;;;;;5002345;28;20041;-91
2023/07/11 01:50:54;;;;;;;4.60;0.98;;;17.50;99.90;;;;;;5017952;28;20044;-92
2023/07/11 01:53:23;;;;;;;7.97;1.50;;;17.50;99.90;;;;;;5051175;28;20048;-92
2023/07/11 01:55:57;;;;;;;3.25;1.65;;;17.60;99.90;;;;;;5034492;28;20037;-93
2023/07/11 01:58:22;;;;;;;3.45;1.38;;;17.60;99.90;;;;;;5050602;28;20395;-93
2023/07/11 02:00:48;;;;;;;2.25;0.95;;;17.60;99.90;;;;;;5019018;28;20041;-92
2023/07/11 02:03:14;;;;;;;3.60;1.38;;;17.60;99.90;;;;;;5017916;28;20048;-90
2023/07/11 02:05:40;;;;;;;4.00;1.33;;;17.70;99.90;;;;;;5018393;28;20044;-92
2023/07/11 02:08:06;;;;;;;2.08;1.05;;;17.70;99.90;;;;;;5001258;28;20040;-93
2023/07/11 02:10:32;;;;;;;3.30;1.08;;;17.70;99.90;;;;;;5033601;28;20080;-92
2023/07/11 02:12:57;;;;;;;3.28;1.13;;;17.60;99.90;;;;;;5050612;28;20163;-92
2023/07/11 02:15:23;;;;;;;2.95;0.98;;;17.60;99.90;;;;;;5049445;28;20546;-92
2023/07/11 02:17:49;;;;;;;2.45;1.02;;;16.90;99.90;;;;;;5034237;28;20049;-91
2023/07/11 02:20:15;;;;;;;2.28;1.00;;;17.50;99.90;;;;;;5016905;28;20072;-90
2023/07/11 02:22:41;;;;;;;5.80;1.30;;;17.40;99.90;;;;;;5033753;28;20044;-91
2023/07/11 02:25:07;;;;;;;4.05;1.45;;;17.40;99.90;;;;;;5033014;28;20044;-91
2023/07/11 02:27:33;;;;;;;5.30;1.10;;;17.30;99.90;;;;;;5034479;28;20114;-91
2023/07/11 02:29:58;;;;;;;3.22;1.30;;;17.30;99.90;;;;;;5017258;28;20492;-91
2023/07/11 02:32:24;;;;;;;5.72;1.65;;;17.20;99.90;;;;;;5049455;28;20040;-91
2023/07/11 02:34:50;;;;;;;4.82;1.23;;;17.20;99.90;;;;;;5033529;28;20040;-91
2023/07/11 02:37:16;;;;;;;5.93;1.30;;;15.50;99.90;;;;;;5032031;28;20051;-91
2023/07/11 02:39:42;;;;;;;6.20;1.38;;;17.20;99.90;;;;;;5032303;28;20052;-90
2023/07/11 02:42:08;;;;;;;6.30;1.70;;;17.20;99.90;;;;;;5015690;28;20475;-91
2023/07/11 02:44:33;;;;;;;3.53;0.98;;;17.10;99.90;;;;;;5049649;28;20381;-90
2023/07/11 02:46:59;;;;;;;4.00;1.15;;;17.10;99.90;;;;;;5032507;28;20357;-90
2023/07/11 02:49:25;;;;;;;4.40;1.15;;;17.10;99.90;;;;;;5015281;28;20480;-90
2023/07/11 02:51:50;;;;;;;5.18;1.63;;;17.10;99.90;;;;;;5048661;28;20099;-90
2023/07/11 02:54:17;;;;;;;5.43;1.23;;;17.10;99.90;;;;;;4999328;28;20411;-91
2023/07/11 02:56:43;;;;;;;7.85;1.70;;;17.10;99.90;;;;;;5048849;28;20670;-90
2023/07/11 02:59:09;;;;;;;6.63;1.50;;;17.10;99.90;;;;;;5048162;28;20047;-90
2023/07/11 03:01:34;;;;;;;3.20;1.55;;;17.10;99.90;;;;;;5016510;28;20044;-90
2023/07/11 03:04:00;;;;;;;2.42;1.10;;;17.10;99.90;;;;;;5032526;28;20080;-90
2023/07/11 03:06:26;;;;;;;4.65;1.05;;;17.10;99.90;;;;;;5048651;28;20500;-90
2023/07/11 03:08:52;;;;;;;4.07;1.17;;;17.10;99.90;;;;;;5015658;28;20040;-89
2023/07/11 03:11:18;;;;;;;6.15;0.90;;;17.10;99.90;;;;;;5030450;28;20597;-90
2023/07/11 03:13:44;;;;;;;11.63;1.42;;;17.00;99.90;;;;;;5048558;28;20036;-90
2023/07/11 03:16:09;;;;;;;7.50;1.40;;;17.00;99.90;;;;;;5031297;28;20049;-91
2023/07/11 03:18:35;;;;;;;6.82;1.42;;;17.10;99.90;;;;;;4999706;28;20040;-90
2023/07/11 03:21:02;;;;;;;3.42;1.40;;;17.00;99.90;;;;;;5031507;28;20045;-92
2023/07/11 03:23:30;;;;;;;4.18;1.42;;;17.00;99.90;;;;;;5056044;28;20051;-91
2023/07/11 03:25:56;;;;;;;4.50;1.48;;;17.00;99.90;;;;;;5040671;28;20041;-90
2023/07/11 03:28:21;;;;;;;4.57;1.48;;;16.30;99.90;;;;;;5024383;28;20048;-90
2023/07/11 03:30:48;;;;;;;4.95;1.10;;;16.90;99.90;;;;;;5041737;28;20063;-89
2023/07/11 03:33:14;;;;;;;7.50;1.60;;;17.00;99.90;;;;;;5040091;28;20047;-90
2023/07/11 03:35:40;;;;;;;9.43;1.65;;;16.90;99.90;;;;;;5041235;28;20567;-90
2023/07/11 03:38:06;;;;;;;2.63;1.08;;;16.90;99.90;;;;;;5038236;28;20053;-91
2023/07/11 03:40:32;;;;;;;3.20;1.50;;;16.90;99.90;;;;;;5036320;28;20055;-90
2023/07/11 03:42:58;;;;;;;3.22;1.75;;;16.90;99.90;;;;;;5051534;28;20048;-90
2023/07/11 03:45:24;;;;;;;4.30;1.38;;;17.00;99.90;;;;;;5038359;28;20076;-90
2023/07/11 03:47:50;;;;;;;5.95;2.58;;;17.80;99.90;;;;;;5022035;28;20072;-90
2023/07/11 03:50:16;;;;;;;4.53;1.30;;;17.00;99.90;;;;;;5040253;28;20051;-95
2023/07/11 03:52:41;;;;;;;4.78;1.60;;;17.00;99.90;;;;;;5036063;28;20044;-88
2023/07/11 03:55:08;;;;;;;4.45;1.27;;;17.10;99.90;;;;;;5035406;28;20067;-90
2023/07/11 03:57:34;;;;;;;3.67;1.13;;;17.00;99.90;;;;;;5052442;28;20048;-89
2023/07/11 04:00:00;;;;;;;4.50;2.03;;;17.10;99.90;;;;;;5034273;28;20040;-90
2023/07/11 04:02:26;;;;;;;4.00;1.30;;;17.10;99.90;;;;;;5003737;28;20053;-88
2023/07/11 04:04:52;;;;;;;4.63;1.90;;;17.10;99.90;;;;;;5034303;28;20058;-90
2023/07/11 04:07:17;;;;;;;5.32;1.83;;;17.30;99.90;;;;;;5051476;28;20036;-89
2023/07/11 04:09:43;;;;;;;3.28;1.17;;;17.20;99.90;;;;;;5034271;28;20044;-89
2023/07/11 04:12:10;;;;;;;4.25;1.67;;;17.20;99.90;;;;;;5017298;28;20148;-91
2023/07/11 04:14:36;;;;;;;2.22;1.38;;;17.30;99.90;;;;;;5016062;28;20078;-90
2023/07/11 04:17:02;;;;;;;6.85;1.90;;;17.30;99.90;;;;;;5029461;28;20135;-91
2023/07/11 04:19:28;;;;;;;7.95;1.58;;;17.30;99.90;;;;;;5048007;28;20094;-90
2023/07/11 04:21:54;;;;;;;6.00;1.92;;;17.40;99.90;;;;;;5030131;28;20079;-90
2023/07/11 04:24:19;;;;;;;4.95;1.98;;;17.40;99.90;;;;;;5030564;28;20132;-89
2023/07/11 04:26:46;;;;;;;2.30;1.10;;;17.50;99.90;;;;;;5030250;28;20231;-90
2023/07/11 04:29:12;;;;;;;7.93;2.00;;;17.50;99.90;;;;;;5046885;28;20491;-83
2023/07/11 04:31:37;;;;;;;4.25;1.48;;;17.60;99.90;;;;;;5030911;28;20063;-91
2023/07/11 04:34:03;;;;;;;4.25;1.42;;;17.60;99.90;;;;;;5047313;28;20128;-94
2023/07/11 04:36:29;;;;;;;3.70;2.00;;;17.70;99.90;;;;;;5016788;28;20056;-85
2023/07/11 04:38:55;;;;;;;9.23;1.63;;;17.80;99.90;;;;;;5012097;28;20040;-85
2023/07/11 04:41:24;;;;;;;7.57;1.83;;;17.80;99.90;;;;;;5014112;28;20182;-88
2023/07/11 04:43:49;;;;;;;3.83;1.73;;;17.80;99.90;;;;;;5046491;28;20135;-88
2023/07/11 04:46:15;;;;;;;5.43;1.92;;;17.90;99.90;;;;;;5033862;28;20155;-87
2023/07/11 04:48:41;;;;;;;9.18;1.65;;;18.00;99.90;;;;;;5051774;28;20439;-91
2023/07/11 04:51:08;;;;;;;6.93;2.28;;;17.90;99.90;;;;;;5050100;28;20036;-90
2023/07/11 04:53:34;;;;;;;6.85;2.15;;;18.00;99.90;;;;;;5051576;28;20041;-85
2023/07/11 04:56:06;;;;;;;6.45;1.90;;;18.10;99.90;;;;;;5048879;28;20049;-85
2023/07/11 04:58:33;;;;;;;4.22;2.15;;;18.00;99.90;;;;;;5050433;28;20583;-85
2023/07/11 05:01:04;;;;;;;4.78;1.85;;;18.10;99.90;;;;;;5049946;28;20149;-83
2023/07/11 05:03:30;;;;;;;4.13;1.95;;;18.10;99.90;;;;;;5049367;28;20048;-85
2023/07/11 05:05:57;;;;;;;5.50;2.00;;;18.10;99.90;;;;;;5050477;28;20158;-84
2023/07/11 05:08:23;;;;;;;5.22;2.08;;;18.10;99.90;;;;;;5048172;28;20044;-84
2023/07/11 05:10:53;;;;;;;6.18;2.55;;;18.10;99.90;;;;;;5033689;28;20488;-84
2023/07/11 05:13:19;;;;;;;9.80;2.03;;;18.10;99.90;;;;;;5048028;28;20041;-86
2023/07/11 05:15:45;;;;;;;5.85;2.30;;;18.20;99.90;;;;;;5050359;28;20051;-84
2023/07/11 05:18:11;;;;;;;5.53;2.30;;;18.20;99.90;;;;;;5032308;28;20044;-85
2023/07/11 05:20:37;;;;;;;7.35;2.30;;;18.20;99.90;;;;;;5067468;28;20036;-88
2023/07/11 05:23:03;;;;;;;8.95;2.80;;;18.20;99.90;;;;;;5033671;28;20083;-87
2023/07/11 05:25:29;;;;;;;5.32;2.10;;;17.20;99.90;;;;;;5032312;28;20087;-86
2023/07/11 05:27:54;;;;;;;6.88;2.60;;;18.40;99.90;;;;;;5050279;28;20566;-86
2023/07/11 05:30:20;;;;;;;5.20;2.13;;;18.60;99.90;;;;;;5048339;28;20166;-88
2023/07/11 05:32:46;;;;;;;5.30;1.67;;;18.70;99.90;;;;;;5033827;28;20047;-88
2023/07/11 05:35:12;;;;;;;7.53;1.67;;;18.90;99.90;;;;;;4999905;28;20056;-88
2023/07/11 05:37:37;;;;;;;3.22;1.70;;;19.10;99.90;;;;;;5000336;28;20110;-84
2023/07/11 05:40:04;;;;;;;6.93;2.30;;;19.20;99.90;;;;;;5017153;28;20045;-87
2023/07/11 05:42:29;;;;;;;4.18;1.83;;;19.30;99.90;;;;;;5032559;28;20044;-88
2023/07/11 05:44:56;;;;;;;12.20;2.60;;;19.40;99.90;;;;;;5050508;28;20484;-88
2023/07/11 05:47:22;;;;;;;6.18;2.30;;;19.40;99.90;;;;;;5066966;28;20051;-89
2023/07/11 05:49:47;;;;;;;6.13;2.20;;;19.60;99.90;;;;;;5001757;28;20045;-88
2023/07/11 05:52:13;;;;;;;4.30;1.95;;;19.60;99.90;;;;;;5015774;28;20479;-86
2023/07/11 05:54:39;;;;;;;5.53;2.08;;;19.80;99.90;;;;;;5000574;28;20131;-89
2023/07/11 05:57:05;;;;;;;4.28;1.90;;;19.90;99.90;;;;;;5049083;28;20055;-88
2023/07/11 05:59:30;;;;;;;7.78;1.80;;;20.00;99.90;;;;;;5048655;28;20492;-89
2023/07/11 06:01:56;;;;;;;7.95;2.20;;;20.00;99.90;;;;;;5033391;28;20051;-89
2023/07/11 06:04:23;;;;;;;5.13;1.98;;;20.10;99.90;;;;;;5014482;28;20366;-89
2023/07/11 06:06:49;;;;;;;2.45;1.70;;;20.00;99.90;;;;;;5017207;28;20499;-88
2023/07/11 06:09:20;;;;;;;4.90;2.30;;;20.00;99.90;;;;;;5048205;28;20048;-87
2023/07/11 06:11:48;;;;;;;4.85;2.17;;;20.10;99.90;;;;;;5033705;28;20104;-87
2023/07/11 06:14:15;;;;;;;4.97;2.17;;;20.20;99.90;;;;;;5049995;28;20585;-89
2023/07/11 06:16:41;;;;;;;6.25;2.03;;;20.20;99.90;;;;;;5048497;28;20040;-88
2023/07/11 06:19:08;;;;;;;7.18;2.45;;;20.20;99.90;;;;;;5049970;28;20400;-85
2023/07/11 06:21:33;;;;;;;4.32;2.60;;;20.20;99.90;;;;;;5047414;28;20487;-88
2023/07/11 06:23:59;;;;;;;6.60;2.25;;;20.20;99.90;;;;;;5033835;28;20052;-88
2023/07/11 06:26:25;;;;;;;4.90;3.38;;;20.10;99.90;;;;;;5014876;28;20071;-88
2023/07/11 06:28:51;;;;;;;4.95;2.08;;;19.80;99.90;;;;;;5032744;28;20051;-88
2023/07/11 06:31:17;;;;;;;7.15;2.80;;;20.20;99.90;;;;;;5047699;28;20101;-88
2023/07/11 06:33:42;;;;;;;5.38;2.10;;;20.30;99.90;;;;;;5048854;28;20044;-88
2023/07/11 06:36:13;;;;;;;6.70;2.83;;;20.40;99.90;;;;;;5049461;28;20542;-88
2023/07/11 06:38:39;;;;;;;3.72;2.28;;;20.50;99.90;;;;;;5032453;28;20044;-89
2023/07/11 06:41:05;;;;;;;5.78;2.45;;;20.60;99.90;;;;;;5033324;28;20198;-88
2023/07/11 06:43:31;;;;;;;7.80;3.03;;;20.80;99.90;;;;;;5030969;28;20037;-86
2023/07/11 06:45:59;;;;;;;7.43;2.60;;;20.80;99.90;;;;;;5050045;28;20605;-89
2023/07/11 06:48:28;;;;;;;7.13;2.10;;;21.00;99.90;;;;;;5031257;28;20047;-88
2023/07/11 06:51:02;;;;;;;5.43;2.53;;;21.10;99.90;;;;;;5050066;28;20044;-88
2023/07/11 06:53:30;;;;;;;4.00;1.67;;;21.20;99.90;;;;;;5049083;28;20333;-90
2023/07/11 06:55:56;;;;;;;5.90;2.50;;;21.30;99.90;;;;;;5030868;28;20040;-88
2023/07/11 06:58:22;;;;;;;6.07;2.20;;;21.50;99.90;;;;;;5033700;28;20411;-89
2023/07/11 07:00:53;;;;;;;7.50;2.13;;;21.70;99.90;;;;;;5046962;28;20135;-88
2023/07/11 07:03:19;;;;;;;6.57;2.13;;;20.60;99.90;;;;;;5033118;28;20095;-87
2023/07/11 07:05:57;;;;;;;10.82;2.20;;;22.00;99.90;;;;;;5031506;28;20041;-89
2023/07/11 07:08:24;;;;;;;10.02;2.10;;;22.10;99.90;;;;;;5047479;28;20539;-87
2023/07/11 07:10:50;;;;;;;6.47;1.92;;;22.20;99.90;;;;;;5031491;28;20084;-87
2023/07/11 07:13:17;;;;;;;5.78;2.10;;;22.30;99.90;;;;;;5030297;28;20044;-87
2023/07/11 07:15:47;;;;;;;8.10;2.20;;;22.40;99.90;;;;;;5032412;28;20399;-86
2023/07/11 07:18:14;;;;;;;4.82;1.80;;;22.50;99.90;;;;;;5046406;28;20045;-87
2023/07/11 07:20:39;;;;;;;4.68;1.65;;;22.60;99.90;;;;;;5032507;28;20098;-88
2023/07/11 07:23:05;;;;;;;4.00;1.80;;;22.80;99.90;;;;;;5047162;28;20487;-87
2023/07/11 07:25:31;;;;;;;3.35;1.95;;;22.90;99.90;;;;;;5048015;28;20044;-87
2023/07/11 07:27:57;;;;;;;3.10;1.58;;;23.00;99.90;;;;;;5031577;28;20055;-88
2023/07/11 07:30:25;;;;;;;4.35;2.47;;;23.20;99.90;;;;;;5046338;28;20052;-88
2023/07/11 07:32:53;;;;;;;3.67;1.83;;;23.20;99.90;;;;;;5032132;28;20468;-87
2023/07/11 07:35:19;;;;;;;10.20;2.47;;;23.50;99.90;;;;;;5046897;28;20723;-87
2023/07/11 07:37:45;;;;;;;4.75;1.52;;;23.50;99.90;;;;;;5048804;28;20049;-86
2023/07/11 07:40:11;;;;;;;4.70;1.67;;;23.60;99.90;;;;;;5032926;28;20064;-87
2023/07/11 07:42:36;;;;;;;6.93;1.83;;;23.60;99.90;;;;;;5021477;28;20127;-87
2023/07/11 07:45:04;;;;;;;4.32;1.92;;;23.70;99.90;;;;;;5055190;28;20044;-86
2023/07/11 07:47:29;;;;;;;3.90;1.88;;;23.80;99.90;;;;;;5039181;28;20124;-86
2023/07/11 07:49:55;;;;;;;2.72;1.83;;;23.90;99.90;;;;;;5054573;28;20079;-86
2023/07/11 07:52:21;;;;;;;6.13;2.38;;;23.80;99.90;;;;;;5052410;28;20044;-87
2023/07/11 07:54:47;;;;;;;7.47;2.15;;;23.80;99.90;;;;;;5035610;28;20040;-87
2023/07/11 07:57:13;;;;;;;3.90;1.60;;;23.80;99.90;;;;;;5032674;28;20076;-86
2023/07/11 07:59:38;;;;;;;3.80;1.38;;;23.80;99.90;;;;;;5018017;28;20048;-86
2023/07/11 08:02:05;;;;;;;3.72;1.55;;;23.70;99.90;;;;;;5048219;28;20040;-86
2023/07/11 08:04:30;;;;;;;6.95;2.08;;;23.80;99.90;;;;;;5035860;28;20048;-88
2023/07/11 08:06:56;;;;;;;6.05;2.30;;;23.80;99.90;;;;;;5048920;28;20102;-86
2023/07/11 08:09:22;;;;;;;5.93;1.70;;;23.80;99.90;;;;;;5013971;28;20048;-87
2023/07/11 08:11:48;;;;;;;5.00;1.70;;;23.80;99.90;;;;;;5032102;28;20040;-88
2023/07/11 08:14:14;;;;;;;5.25;1.92;;;23.90;99.90;;;;;;5013777;28;20075;-86
2023/07/11 08:16:39;;;;;;;3.40;1.75;;;24.10;99.90;;;;;;5002137;28;20136;-87
2023/07/11 08:19:06;;;;;;;6.72;2.00;;;24.20;99.90;;;;;;5032727;28;20449;-87
2023/07/11 08:21:32;;;;;;;4.03;1.92;;;23.00;99.90;;;;;;5017771;28;20041;-87
2023/07/11 08:24:00;;;;;;;2.95;1.73;;;24.50;99.90;;;;;;5050701;28;20033;-87
2023/07/11 08:26:25;;;;;;;4.65;1.67;;;23.70;99.90;;;;;;5016372;28;20041;-86
2023/07/11 08:28:51;;;;;;;4.90;1.88;;;24.70;99.90;;;;;;5036533;28;20047;-90
2023/07/11 08:31:17;;;;;;;3.30;1.45;;;24.70;99.90;;;;;;5055849;28;20052;-88
2023/07/11 08:33:46;;;;;;;4.57;1.60;;;24.60;99.90;;;;;;5058206;28;20118;-88
2023/07/11 08:36:12;;;;;;;4.15;1.58;;;24.60;99.90;;;;;;5041392;28;20052;-89
2023/07/11 08:38:38;;;;;;;3.95;1.45;;;24.60;99.90;;;;;;5053466;28;20052;-89
2023/07/11 08:41:26;;;;;;;5.07;1.92;;;24.50;99.80;;;;;;5015845;28;20496;-88
2023/07/11 08:43:57;;;;;;;3.58;1.60;;;24.40;99.30;;;;;;5052439;28;20338;-89
2023/07/11 08:46:26;;;;;;;5.37;1.87;;;24.40;99.60;;;;;;5058683;28;20036;-88
2023/07/11 08:48:58;;;;;;;5.38;1.80;;;24.30;99.80;;;;;;5057868;28;20080;-88
2023/07/11 08:51:34;;;;;;;3.67;1.35;;;24.40;99.60;;;;;;5041224;28;20135;-87
2023/07/11 08:54:15;;;;;;;4.40;1.95;;;24.50;99.70;;;;;;5040537;28;20055;-89
2023/07/11 08:56:45;;;;;;;4.38;1.60;;;24.70;99.00;;;;;;5038705;28;20441;-88
2023/07/11 08:59:21;;;;;;;5.13;1.98;;;24.90;99.10;;;;;;5056353;28;20044;-88
2023/07/11 09:02:01;;;;;;;4.63;2.05;;;25.10;98.40;;;;;;5051286;28;20044;-88
2023/07/11 09:04:29;;;;;;;3.67;2.22;;;25.30;98.00;;;;;;5056288;28;20496;-89
2023/07/11 09:07:23;;;;;;;4.30;1.85;;;27.20;98.70;;;;;;5055207;28;20041;-88
2023/07/11 09:09:49;;;;;;;5.88;2.13;;;25.70;98.00;;;;;;5044088;28;20060;-88
2023/07/11 09:12:40;;;;;;;3.38;1.63;;;25.80;97.60;;;;;;5034429;28;20086;-88
2023/07/11 09:15:21;;;;;;;6.32;1.65;;;25.80;96.60;;;;;;5048436;28;20110;-89
2023/07/11 09:17:56;;;;;;;7.32;1.88;;;25.90;97.10;;;;;;5030678;28;20060;-89
2023/07/11 09:20:45;;;;;;;2.83;1.52;;;26.00;96.60;;;;;;5049096;28;20059;-89
2023/07/11 09:23:42;;;;;;;4.15;1.38;;;26.20;96.70;;;;;;5047280;28;20048;-89
2023/07/11 09:26:18;;;;;;;2.67;1.17;;;26.50;95.80;;;;;;5048240;28;20486;-88
2023/07/11 09:28:45;;;;;;;6.63;1.98;;;26.40;95.10;;;;;;5067752;28;20061;-89
2023/07/11 09:31:19;;;;;;;4.55;1.67;;;26.40;94.80;;;;;;5033363;28;20098;-88
2023/07/11 09:33:55;;;;;;;3.75;1.42;;;26.40;94.30;;;;;;5054071;28;20048;-88
2023/07/11 09:36:31;;;;;;;4.35;2.10;;;26.60;93.30;;;;;;5054691;28;20104;-89
2023/07/11 09:39:21;;;;;;;4.03;1.52;;;26.70;94.10;;;;;;5055728;28;20103;-87
2023/07/11 09:41:58;;;;;;;4.90;1.63;;;26.90;93.70;;;;;;5041129;28;20033;-87
2023/07/11 09:44:24;;;;;;;6.05;1.38;;;27.00;93.70;;;;;;5054631;28;20487;-89
2023/07/11 09:46:49;;;;;;;3.33;1.00;;;27.20;93.60;;;;;;5039355;28;20037;-89
2023/07/11 09:49:21;;;;;;;6.30;1.58;;;26.60;93.00;;;;;;5055971;28;20127;-88
2023/07/11 09:51:53;;;;;;;;;;;27.40;92.70;;;;;;5041036;28;20052;-88
2023/07/11 09:54:24;;;;;;;4.30;1.25;;;27.50;92.90;;;;;;5057736;28;19965;-87
2023/07/11 09:56:50;;;;;;;4.40;1.40;;;27.70;92.60;;;;;;5055303;28;20339;-88
2023/07/11 09:59:20;;;;;;;5.40;1.52;;;27.80;91.90;;;;;;5025170;28;20551;-90
2023/07/11 10:01:55;;;;;;;3.17;1.23;;;27.80;91.20;;;;;;5023525;28;20087;-92
2023/07/11 10:04:26;;;;;;;2.28;1.05;;;28.30;90.60;;;;;;5044092;28;20127;-96
2023/07/11 10:06:55;;;;;;;2.65;1.20;;;28.00;90.70;;;;;;5027145;28;20059;-90
2023/07/11 10:09:28;;;;;;;3.45;0.82;;;28.10;90.70;;;;;;5040006;28;20067;-91
2023/07/11 10:11:55;;;;;;;3.42;1.15;;;28.30;90.50;;;;;;5040473;28;20092;-86
2023/07/11 10:14:26;;;;;;;3.70;1.05;;;28.40;89.70;;;;;;5055709;28;20050;-87
2023/07/11 10:16:54;;;;;;;4.72;1.23;;;28.50;88.80;;;;;;5039325;28;20045;-88
2023/07/11 10:19:20;;;;;;;7.57;1.38;;;28.40;88.10;;;;;;5055656;28;20072;-88
2023/07/11 10:21:56;;;;;;;3.35;0.85;;;28.30;88.00;;;;;;5037368;28;20036;-90
2023/07/11 10:24:24;;;;;;;2.30;0.88;;;28.40;87.30;;;;;;5053062;28;20052;-88
2023/07/11 10:27:03;;;;;;;2.97;1.02;;;27.90;86.90;;;;;;5036728;28;20047;-89
2023/07/11 10:29:36;;;;;;;3.08;1.20;;;27.90;86.90;;;;;;5037689;28;20087;-90
2023/07/11 10:32:08;;;;;;;3.30;1.15;;;27.80;87.40;;;;;;5036319;28;20526;-89
2023/07/11 10:34:44;;;;;;;3.88;1.13;;;27.80;87.00;;;;;;5051792;28;20056;-91
2023/07/11 10:37:23;;;;;;;2.85;1.00;;;27.70;87.60;;;;;;5051827;28;20963;-89
2023/07/11 10:39:53;;;;;;;3.28;1.10;;;27.80;87.20;;;;;;5050508;28;20049;-92
2023/07/11 10:42:43;;;;;;;1.67;1.08;;;27.90;86.70;;;;;;5048731;28;20156;-89
2023/07/11 10:45:14;;;;;;;6.72;1.27;;;28.00;85.70;;;;;;5049297;28;20508;-86
2023/07/11 10:47:54;;;;;;;2.70;1.15;;;27.90;86.90;;;;;;5033072;28;20374;-87
2023/07/11 10:50:45;;;;;;;4.93;1.40;;;28.00;86.60;;;;;;5033525;28;20126;-90
2023/07/11 10:53:52;;;;;;;3.63;1.20;;;28.10;87.00;;;;;;5027085;28;20040;-88
2023/07/11 10:56:24;;;;;;;4.80;1.58;;;28.20;86.00;;;;;;4955937;28;20058;-90
2023/07/11 10:58:51;;;;;;;5.03;1.23;;;28.30;86.90;;;;;;5038562;28;20049;-88
2023/07/11 11:01:32;;;;;;;3.28;1.27;;;28.20;86.90;;;;;;5031608;28;20055;-87
2023/07/11 11:04:07;;;;;;;3.60;0.93;;;28.20;85.80;;;;;;5034274;28;20048;-87
2023/07/11 11:07:03;;;;;;;3.80;1.20;;;28.30;85.30;;;;;;5031979;28;20059;-86
2023/07/11 11:10:07;;;;;;;4.45;1.40;;;28.30;85.80;;;;;;5033226;28;20581;-88
2023/07/11 11:12:51;;;;;;;6.72;1.35;;;28.30;86.60;;;;;;5033913;28;20564;-89
2023/07/11 11:15:42;;;;;;;3.90;1.30;;;28.50;85.40;;;;;;5051328;28;20044;-89
2023/07/11 11:18:35;;;;;;;4.53;1.60;;;28.60;85.20;;;;;;5034508;28;20044;-88
2023/07/11 11:21:25;;;;;;;3.65;1.10;;;28.70;84.90;;;;;;5034393;28;20079;-88
2023/07/11 11:24:13;;;;;;;5.63;1.50;;;28.70;85.80;;;;;;5051252;28;20108;-89
2023/07/11 11:27:11;;;;;;;3.75;1.48;;;28.80;83.70;;;;;;5033414;28;20052;-88
2023/07/11 11:29:56;;;;;;;3.83;1.67;;;28.80;84.20;;;;;;5035446;28;20442;-85
2023/07/11 11:32:38;;;;;;;3.40;1.10;;;28.90;84.70;;;;;;5033124;28;20052;-88
2023/07/11 11:35:07;;;;;;;4.10;1.27;;;29.20;84.40;;;;;;5033390;28;20087;-88
2023/07/11 11:37:55;;;;;;;2.88;1.33;;;29.10;84.60;;;;;;5053840;28;20358;-89
2023/07/11 11:40:30;;;;;;;6.30;1.60;;;29.40;83.50;;;;;;5052680;28;20052;-87
2023/07/11 11:43:10;;;;;;;4.70;1.50;;;29.60;83.90;;;;;;5039835;28;20131;-87
2023/07/11 11:45:37;;;;;;;4.47;1.40;;;29.60;83.60;;;;;;5036090;28;20036;-87
2023/07/11 11:48:04;;;;;;;6.28;1.25;;;29.80;83.10;;;;;;5019286;28;20048;-87
2023/07/11 11:50:32;;;;;;;7.40;1.60;;;29.90;82.30;;;;;;5004824;28;20369;-88
2023/07/11 11:53:31;;;;;;;5.10;1.73;;;30.00;82.20;;;;;;5035159;28;20052;-86
2023/07/11 11:56:03;;;;;;;4.70;1.95;;;30.00;80.50;;;;;;5038100;28;20408;-87
2023/07/11 11:58:30;;;;;;;;;;;29.90;81.20;;;;;;5037415;28;20081;-88
2023/07/11 12:00:58;;;;;;;4.72;1.55;;;30.30;81.80;;;;;;5039732;28;19920;-87
2023/07/11 12:03:48;;;;;;;5.80;1.90;;;30.20;82.80;;;;;;5060904;28;20083;-87
2023/07/11 12:06:36;;;;;;;2.30;1.05;;;30.00;82.50;;;;;;5042004;28;20092;-85
2023/07/11 12:09:23;;;;;;;3.20;1.40;;;30.00;81.20;;;;;;5062816;28;20111;-86
2023/07/11 12:12:16;;;;;;;4.95;1.73;;;30.00;81.10;;;;;;5042277;28;20377;-87
2023/07/11 12:14:56;;;;;;;3.42;1.42;;;30.00;80.90;;;;;;5039193;28;20047;-87
2023/07/11 12:17:31;;;;;;;4.53;1.48;;;30.80;81.40;;;;;;5040051;28;20060;-86
2023/07/11 12:20:27;;;;;;;4.15;1.58;;;30.20;80.10;;;;;;5054165;28;20041;-87
2023/07/11 12:22:52;;;;;;;6.13;1.33;;;30.40;80.20;;;;;;5029765;28;20048;-87
2023/07/11 12:25:28;;;;;;;3.38;1.20;;;30.60;80.00;;;;;;5055187;28;20051;-87
2023/07/11 12:28:21;;;;;;;5.60;1.70;;;29.40;79.20;;;;;;5056641;28;20102;-88
2023/07/11 12:31:04;;;;;;;3.60;1.83;;;30.50;79.00;;;;;;5061239;28;20068;-87
2023/07/11 12:33:36;;;;;;;4.97;1.60;;;30.50;78.10;;;;;;5039403;28;20087;-87
2023/07/11 12:36:24;;;;;;;3.72;1.35;;;30.60;79.10;;;;;;5040685;28;20040;-85
2023/07/11 12:39:14;;;;;;;4.85;1.30;;;30.80;78.60;;;;;;5041658;28;20040;-86
2023/07/11 12:41:53;;;;;;;4.22;1.45;;;31.10;78.40;;;;;;5057956;28;20116;-86
2023/07/11 12:44:20;;;;;;;2.10;1.20;;;31.10;78.40;;;;;;5057265;28;20076;-86
2023/07/11 12:46:52;;;;;;;2.45;1.30;;;30.00;77.80;;;;;;5040374;28;20055;-85
2023/07/11 12:49:28;;;;;;;8.90;1.50;;;30.80;78.60;;;;;;5040778;28;20407;-86
2023/07/11 12:52:14;;;;;;;5.95;1.70;;;30.70;78.40;;;;;;5057054;28;20431;-84
2023/07/11 12:54:42;;;;;;;4.75;1.90;;;30.50;77.80;;;;;;5039790;28;20560;-87
2023/07/11 12:57:17;;;;;;;5.95;1.40;;;30.30;78.30;;;;;;5024750;28;20040;-87
2023/07/11 12:59:49;;;;;;;7.55;1.35;;;30.30;78.20;;;;;;5054997;28;20078;-89
2023/07/11 13:02:24;;;;;;;3.70;1.45;;;30.20;78.30;;;;;;5038618;28;20048;-86